createdAt,value
2019-02-25T00:01:23.903Z,32.33
2019-02-25T00:03:55.282Z,31.60
2019-02-25T00:06:26.142Z,32.73
2019-02-25T00:08:57.160Z,32.23
2019-02-25T00:11:28.233Z,32.97
2019-02-25T00:13:59.177Z,31.53
2019-02-25T00:16:30.082Z,32.10
2019-02-25T00:19:01.015Z,32.57
2019-02-25T00:21:32.045Z,33.03
2019-02-25T00:24:02.982Z,34.07
2019-02-25T00:26:33.897Z,33.87
2019-02-25T00:29:05.002Z,34.43
2019-02-25T00:31:35.909Z,33.57
2019-02-25T00:34:06.848Z,34.33
2019-02-25T00:36:37.750Z,36.33
2019-02-25T00:39:09.658Z,35.53
2019-02-25T00:41:40.561Z,34.43
2019-02-25T00:44:11.530Z,34.77
2019-02-25T00:46:42.440Z,33.87
2019-02-25T00:49:13.772Z,33.57
2019-02-25T00:51:44.681Z,34.00
2019-02-25T00:54:15.605Z,33.47
2019-02-25T00:56:46.516Z,34.70
2019-02-25T00:59:17.480Z,36.60
2019-02-25T01:01:48.373Z,35.93
2019-02-25T01:04:19.376Z,35.93
2019-02-25T01:06:50.278Z,35.50
2019-02-25T01:09:21.310Z,36.17
2019-02-25T01:11:52.209Z,37.73
2019-02-25T01:14:23.181Z,34.80
2019-02-25T01:16:54.081Z,35.57
2019-02-25T01:19:25.008Z,35.13
2019-02-25T01:21:55.908Z,35.77
2019-02-25T01:24:26.852Z,35.23
2019-02-25T01:26:57.757Z,35.73
2019-02-25T01:29:28.719Z,35.23
2019-02-25T01:31:59.625Z,37.07
2019-02-25T01:34:30.565Z,35.50
2019-02-25T01:37:01.475Z,37.30
2019-02-25T01:39:32.411Z,36.90
2019-02-25T01:42:03.310Z,36.87
2019-02-25T01:44:34.289Z,35.20
2019-02-25T01:47:05.185Z,38.57
2019-02-25T01:49:36.699Z,35.33
2019-02-25T01:52:07.622Z,36.73
2019-02-25T01:54:38.566Z,37.23
2019-02-25T01:57:09.466Z,35.87
2019-02-25T01:59:40.538Z,36.53
2019-02-25T02:02:11.441Z,37.30
2019-02-25T02:04:42.403Z,37.73
2019-02-25T02:07:13.300Z,37.80
2019-02-25T02:09:45.039Z,35.47
2019-02-25T02:12:15.943Z,35.23
2019-02-25T02:14:46.901Z,35.87
2019-02-25T02:17:17.808Z,35.40
2019-02-25T02:19:48.737Z,35.53
2019-02-25T02:22:19.640Z,34.20
2019-02-25T02:24:50.568Z,35.30
2019-02-25T02:27:21.476Z,33.67
2019-02-25T02:29:52.448Z,33.30
2019-02-25T02:32:23.363Z,34.07
2019-02-25T02:34:54.296Z,33.57
2019-02-25T02:37:25.213Z,34.30
2019-02-25T02:39:56.453Z,34.70
2019-02-25T02:42:27.359Z,34.10
2019-02-25T02:44:58.407Z,33.20
2019-02-25T02:47:35.477Z,34.33
2019-02-25T02:50:15.459Z,33.37
2019-02-25T02:52:46.373Z,32.90
2019-02-25T02:55:17.300Z,32.13
2019-02-25T02:57:48.212Z,32.63
2019-02-25T03:00:19.978Z,31.60
2019-02-25T03:02:50.870Z,32.83
2019-02-25T03:05:21.799Z,32.17
2019-02-25T03:07:52.722Z,30.10
2019-02-25T03:10:23.640Z,28.90
2019-02-25T03:12:54.544Z,28.87
2019-02-25T03:15:25.509Z,28.83
2019-02-25T03:17:56.419Z,27.07
2019-02-25T03:20:27.330Z,25.10
2019-02-25T03:22:58.239Z,23.90
2019-02-25T03:25:29.170Z,22.73
2019-02-25T03:28:00.070Z,21.37
2019-02-25T03:30:31.036Z,22.13
2019-02-25T03:33:01.950Z,22.47
2019-02-25T03:35:32.952Z,20.70
2019-02-25T03:38:03.870Z,21.27
2019-02-25T03:40:34.779Z,21.20
2019-02-25T03:43:05.690Z,19.53
2019-02-25T03:45:36.630Z,19.83
2019-02-25T03:48:07.530Z,20.23
2019-02-25T03:50:38.543Z,18.47
2019-02-25T03:53:09.471Z,17.70
2019-02-25T03:55:40.390Z,18.77
2019-02-25T03:58:11.305Z,18.53
2019-02-25T04:00:42.247Z,17.17
2019-02-25T04:03:13.152Z,19.43
2019-02-25T04:05:44.075Z,20.37
2019-02-25T04:08:14.982Z,21.10
2019-02-25T04:10:46.781Z,22.30
2019-02-25T04:13:17.743Z,21.10
2019-02-25T04:15:48.955Z,21.90
2019-02-25T04:18:19.890Z,19.67
2019-02-25T04:20:50.813Z,20.43
2019-02-25T04:23:21.709Z,20.80
2019-02-25T04:25:52.660Z,24.67
2019-02-25T04:28:23.576Z,22.30
2019-02-25T04:30:54.546Z,22.40
2019-02-25T04:33:25.445Z,22.77
2019-02-25T04:35:56.394Z,20.93
2019-02-25T04:38:27.295Z,21.67
2019-02-25T04:40:58.247Z,20.63
2019-02-25T04:43:29.147Z,20.10
2019-02-25T04:46:00.237Z,21.23
2019-02-25T04:48:31.147Z,21.10
2019-02-25T04:51:02.066Z,20.23
2019-02-25T04:53:32.966Z,20.03
2019-02-25T04:56:03.987Z,20.27
2019-02-25T04:58:34.880Z,21.33
2019-02-25T05:01:05.926Z,18.40
2019-02-25T05:03:36.913Z,18.97
2019-02-25T05:06:07.845Z,20.37
2019-02-25T05:08:38.682Z,18.77
2019-02-25T05:11:09.688Z,23.03
2019-02-25T05:13:40.590Z,18.37
2019-02-25T05:16:11.551Z,18.27
2019-02-25T05:18:42.454Z,17.87
2019-02-25T05:21:13.403Z,21.80
2019-02-25T05:23:44.309Z,23.17
2019-02-25T05:26:15.234Z,21.10
2019-02-25T05:28:46.155Z,21.90
2019-02-25T05:31:17.154Z,19.30
2019-02-25T05:33:48.040Z,16.80
2019-02-25T05:36:18.985Z,17.33
2019-02-25T05:38:49.890Z,17.60
2019-02-25T05:41:20.828Z,18.53
2019-02-25T05:43:51.730Z,16.53
2019-02-25T05:46:22.708Z,15.50
2019-02-25T05:48:53.609Z,16.40
2019-02-25T05:51:24.544Z,19.40
2019-02-25T05:53:55.460Z,20.03
2019-02-25T05:56:26.382Z,19.50
2019-02-25T05:58:57.296Z,19.27
2019-02-25T06:01:28.251Z,19.33
2019-02-25T06:03:59.166Z,15.87
2019-02-25T06:06:30.094Z,15.33
2019-02-25T06:09:01.054Z,15.77
2019-02-25T06:11:32.060Z,15.67
2019-02-25T06:14:03.258Z,15.73
2019-02-25T06:16:34.215Z,16.57
2019-02-25T06:19:05.129Z,16.27
2019-02-25T06:21:36.064Z,16.50
2019-02-25T06:24:06.969Z,14.60
2019-02-25T06:26:38.677Z,14.80
2019-02-25T06:29:09.673Z,14.27
2019-02-25T06:31:40.645Z,14.17
2019-02-25T06:34:11.536Z,15.87
2019-02-25T06:36:42.466Z,17.00
2019-02-25T06:39:13.385Z,14.63
2019-02-25T06:41:44.314Z,14.50
2019-02-25T06:44:15.216Z,14.83
2019-02-25T06:46:46.214Z,13.70
2019-02-25T06:49:17.133Z,15.37
2019-02-25T06:51:48.063Z,13.57
2019-02-25T06:54:18.964Z,13.40
2019-02-25T06:56:49.953Z,22.33
2019-02-25T06:59:20.836Z,14.77
2019-02-25T07:01:51.787Z,16.53
2019-02-25T07:04:27.022Z,13.53
2019-02-25T07:07:05.545Z,14.63
2019-02-25T07:09:38.967Z,16.50
2019-02-25T07:12:12.358Z,18.73
2019-02-25T07:14:47.882Z,18.03
2019-02-25T07:17:22.619Z,14.97
2019-02-25T07:19:54.746Z,18.23
2019-02-25T07:22:45.339Z,14.63
2019-02-25T07:25:17.885Z,16.63
2019-02-25T07:27:56.187Z,13.80
2019-02-25T07:30:31.453Z,13.93
2019-02-25T07:33:04.061Z,15.50
2019-02-25T07:35:39.566Z,16.03
2019-02-25T07:38:23.933Z,15.83
2019-02-25T07:41:12.827Z,14.33
2019-02-25T07:44:00.670Z,14.40
2019-02-25T07:46:48.464Z,12.47
2019-02-25T07:49:33.226Z,12.57
2019-02-25T07:52:08.727Z,11.40
2019-02-25T07:54:47.021Z,10.43
2019-02-25T07:57:28.738Z,11.53
2019-02-25T08:00:07.240Z,11.43
2019-02-25T08:02:51.847Z,11.00
2019-02-25T08:05:42.512Z,14.10
2019-02-25T08:08:30.934Z,13.23
2019-02-25T08:11:06.082Z,13.43
2019-02-25T08:13:39.418Z,13.03
2019-02-25T08:16:27.363Z,14.77
2019-02-25T08:19:06.030Z,12.03
2019-02-25T08:21:47.811Z,15.43
2019-02-25T08:24:30.516Z,15.23
2019-02-25T08:27:00.401Z,15.90
2019-02-25T08:29:32.948Z,11.80
2019-02-25T08:32:14.276Z,10.70
2019-02-25T08:35:02.886Z,9.97
2019-02-25T08:37:43.986Z,9.93
2019-02-25T08:40:31.636Z,10.30
2019-02-25T08:43:02.920Z,11.17
2019-02-25T08:45:35.465Z,11.70
2019-02-25T08:48:14.168Z,12.40
2019-02-25T08:50:45.071Z,11.87
2019-02-25T08:53:16.029Z,11.13
2019-02-25T08:55:46.937Z,11.87
2019-02-25T08:58:17.875Z,11.57
2019-02-25T09:00:48.774Z,11.30
2019-02-25T09:03:19.708Z,11.27
2019-02-25T09:05:50.620Z,12.50
2019-02-25T09:08:21.571Z,11.37
2019-02-25T09:10:52.484Z,12.50
2019-02-25T09:13:23.936Z,12.37
2019-02-25T09:15:54.898Z,12.97
2019-02-25T09:18:25.920Z,13.77
2019-02-25T09:20:56.823Z,14.20
2019-02-25T09:23:27.796Z,12.97
2019-02-25T09:25:58.695Z,12.93
2019-02-25T09:28:29.632Z,12.70
2019-02-25T09:31:00.548Z,13.07
2019-02-25T09:33:31.584Z,12.33
2019-02-25T09:36:02.545Z,14.00
2019-02-25T09:38:33.595Z,12.57
2019-02-25T09:41:04.529Z,12.47
2019-02-25T09:43:35.578Z,12.53
2019-02-25T09:46:06.503Z,13.87
2019-02-25T09:48:37.463Z,15.77
2019-02-25T09:51:08.386Z,14.53
2019-02-25T09:53:39.395Z,13.47
2019-02-25T09:56:10.400Z,12.67
2019-02-25T09:58:41.482Z,14.00
2019-02-25T10:01:12.545Z,14.03
2019-02-25T10:03:43.557Z,13.73
2019-02-25T10:06:14.492Z,12.47
2019-02-25T10:08:46.553Z,15.23
2019-02-25T10:11:17.683Z,14.50
2019-02-25T10:13:48.617Z,15.37
2019-02-25T10:16:20.329Z,16.50
2019-02-25T10:18:51.259Z,19.20
2019-02-25T10:21:22.171Z,22.77
2019-02-25T10:23:53.129Z,18.37
2019-02-25T10:26:24.051Z,17.83
2019-02-25T10:28:54.985Z,15.00
2019-02-25T10:31:25.901Z,15.50
2019-02-25T10:33:56.838Z,13.83
2019-02-25T10:36:27.752Z,12.97
2019-02-25T10:38:58.755Z,12.97
2019-02-25T10:41:29.676Z,21.60
2019-02-25T10:44:02.221Z,14.70
2019-02-25T10:46:33.510Z,14.83
2019-02-25T10:49:11.118Z,14.20
2019-02-25T10:51:40.614Z,15.00
2019-02-25T10:54:10.041Z,13.70
2019-02-25T10:56:44.526Z,13.67
2019-02-25T10:59:15.450Z,14.67
2019-02-25T11:01:47.507Z,14.50
2019-02-25T11:04:20.053Z,11.13
2019-02-25T11:06:51.149Z,13.23
2019-02-25T11:09:29.530Z,11.70
2019-02-25T11:12:00.500Z,12.70
2019-02-25T11:14:33.381Z,13.77
2019-02-25T11:17:04.308Z,13.23
2019-02-25T11:19:35.242Z,12.30
2019-02-25T11:22:08.337Z,11.80
2019-02-25T11:24:38.801Z,14.07
2019-02-25T11:27:09.707Z,14.10
2019-02-25T11:29:42.503Z,14.07
2019-02-25T11:32:13.266Z,12.87
2019-02-25T11:34:44.206Z,13.73
2019-02-25T11:37:16.730Z,16.63
2019-02-25T11:39:47.759Z,14.97
2019-02-25T11:42:20.538Z,13.03
2019-02-25T11:44:51.982Z,14.67
2019-02-25T11:47:24.016Z,14.13
2019-02-25T11:49:54.968Z,13.43
2019-02-25T11:52:25.916Z,14.17
2019-02-25T11:54:56.994Z,12.83
2019-02-25T11:57:27.894Z,18.83
2019-02-25T11:59:58.830Z,15.17
2019-02-25T12:02:29.748Z,16.40
2019-02-25T12:05:00.676Z,19.50
2019-02-25T12:07:31.574Z,17.63
2019-02-25T12:10:02.623Z,14.73
2019-02-25T12:12:33.590Z,14.13
2019-02-25T12:15:07.870Z,15.13
2019-02-25T12:17:39.638Z,14.70
2019-02-25T12:20:12.843Z,14.17
2019-02-25T12:22:43.747Z,14.73
2019-02-25T12:25:17.140Z,15.30
2019-02-25T12:27:48.056Z,16.47
2019-02-25T12:30:21.128Z,15.40
2019-02-25T12:32:52.135Z,15.80
2019-02-25T12:35:23.135Z,15.47
2019-02-25T12:37:54.038Z,19.23
2019-02-25T12:40:25.001Z,19.80
2019-02-25T12:42:55.907Z,15.30
2019-02-25T12:45:26.835Z,12.80
2019-02-25T12:47:57.737Z,15.33
2019-02-25T12:50:28.677Z,13.03
2019-02-25T12:52:59.586Z,12.97
2019-02-25T12:55:30.667Z,14.40
2019-02-25T12:58:01.704Z,15.17
2019-02-25T13:00:32.796Z,14.30
2019-02-25T13:03:03.924Z,14.80
2019-02-25T13:05:34.980Z,16.53
2019-02-25T13:08:06.113Z,15.07
2019-02-25T13:10:37.397Z,13.37
2019-02-25T13:13:15.906Z,14.43
2019-02-25T13:15:46.964Z,13.80
2019-02-25T13:18:18.003Z,13.07
2019-02-25T13:20:49.062Z,14.47
2019-02-25T13:23:20.198Z,34.20
2019-02-25T13:25:51.298Z,92.93
2019-02-25T13:28:23.545Z,28.60
2019-02-25T13:30:58.841Z,30.83
2019-02-25T13:33:29.767Z,20.07
2019-02-25T13:36:00.999Z,25.77
2019-02-25T13:38:31.902Z,21.87
2019-02-25T13:41:02.858Z,24.90
2019-02-25T13:43:33.778Z,25.13
2019-02-25T13:46:04.724Z,13.30
2019-02-25T13:48:35.642Z,11.73
2019-02-25T13:51:06.654Z,12.03
2019-02-25T13:53:37.649Z,13.87
2019-02-25T13:56:08.628Z,13.47
2019-02-25T13:58:39.543Z,9.70
2019-02-25T14:01:11.584Z,10.03
2019-02-25T14:03:42.510Z,13.70
2019-02-25T14:06:13.544Z,11.27
2019-02-25T14:08:44.515Z,9.20
2019-02-25T14:11:15.480Z,14.50
2019-02-25T14:13:46.392Z,18.07
2019-02-25T14:16:17.344Z,14.90
2019-02-25T14:18:49.332Z,12.00
2019-02-25T14:21:20.273Z,10.30
2019-02-25T14:23:51.290Z,13.50
2019-02-25T14:26:22.350Z,15.47
2019-02-25T14:28:53.266Z,11.00
2019-02-25T14:31:24.499Z,16.47
2019-02-25T14:33:55.491Z,11.83
2019-02-25T14:36:28.146Z,12.17
2019-02-25T14:39:01.467Z,13.23
2019-02-25T14:41:32.058Z,13.97
2019-02-25T14:44:03.579Z,25.87
2019-02-25T14:46:34.528Z,19.40
2019-02-25T14:49:05.542Z,13.57
2019-02-25T14:51:36.558Z,12.13
2019-02-25T14:54:07.536Z,12.30
2019-02-25T14:56:38.801Z,12.90
2019-02-25T14:59:14.537Z,13.17
2019-02-25T15:01:42.359Z,14.20
2019-02-25T15:04:14.060Z,16.27
2019-02-25T15:06:45.102Z,22.80
2019-02-25T15:09:16.326Z,30.33
2019-02-25T15:11:47.733Z,23.97
2019-02-25T15:14:19.248Z,20.50
2019-02-25T15:16:50.294Z,14.47
2019-02-25T15:19:21.361Z,16.53
2019-02-25T15:21:54.191Z,15.13
2019-02-25T15:24:24.847Z,18.23
2019-02-25T15:26:57.485Z,16.60
2019-02-25T15:29:28.544Z,17.43
2019-02-25T15:32:01.870Z,20.27
2019-02-25T15:34:32.653Z,17.97
2019-02-25T15:37:04.860Z,22.80
2019-02-25T15:39:36.384Z,22.83
2019-02-25T15:42:07.540Z,25.20
2019-02-25T15:44:40.350Z,25.33
2019-02-25T15:47:13.421Z,28.67
2019-02-25T15:49:44.380Z,24.97
2019-02-25T15:52:18.456Z,21.67
2019-02-25T15:54:48.216Z,22.00
2019-02-25T15:57:20.592Z,27.57
2019-02-25T15:59:51.782Z,21.70
2019-02-25T16:02:22.733Z,19.67
2019-02-25T16:04:54.061Z,45.83
2019-02-25T16:07:25.978Z,30.40
2019-02-25T16:10:03.361Z,23.77
2019-02-25T16:12:31.445Z,23.97
2019-02-25T16:15:06.938Z,26.30
2019-02-25T16:17:37.754Z,22.90
2019-02-25T16:20:11.374Z,12.30
2019-02-25T16:22:42.310Z,18.73
2019-02-25T16:25:22.967Z,16.20
2019-02-25T16:27:54.252Z,25.87
2019-02-25T16:30:26.335Z,27.17
2019-02-25T16:32:59.667Z,17.20
2019-02-25T16:35:30.717Z,16.67
2019-02-25T16:38:02.759Z,20.67
2019-02-25T16:40:36.097Z,20.37
2019-02-25T16:43:09.731Z,19.10
2019-02-25T16:45:41.933Z,30.77
2019-02-25T16:48:13.146Z,18.80
2019-02-25T16:50:46.310Z,20.97
2019-02-25T16:53:18.298Z,20.80
2019-02-25T16:55:51.550Z,17.30
2019-02-25T16:58:22.765Z,23.10
2019-02-25T17:00:56.018Z,25.57
2019-02-25T17:03:26.538Z,24.53
2019-02-25T17:05:57.600Z,21.73
2019-02-25T17:08:30.356Z,21.07
2019-02-25T17:11:01.360Z,25.90
2019-02-25T17:13:33.093Z,21.23
2019-02-25T17:16:05.280Z,20.90
2019-02-25T17:18:36.291Z,19.47
2019-02-25T17:21:07.698Z,18.63
2019-02-25T17:23:39.113Z,18.40
2019-02-25T17:26:12.142Z,22.43
2019-02-25T17:28:43.098Z,27.23
2019-02-25T17:31:16.153Z,27.07
2019-02-25T17:33:47.405Z,29.03
2019-02-25T17:36:19.406Z,26.00
2019-02-25T17:38:51.994Z,24.17
2019-02-25T17:41:22.997Z,24.47
2019-02-25T17:43:54.950Z,26.33
2019-02-25T17:46:28.777Z,27.33
2019-02-25T17:48:59.308Z,28.57
2019-02-25T17:51:30.217Z,55.70
2019-02-25T17:54:02.464Z,40.33
2019-02-25T17:56:33.364Z,22.93
2019-02-25T17:59:05.559Z,22.80
2019-02-25T18:01:37.405Z,23.13
2019-02-25T18:04:10.374Z,21.60
2019-02-25T18:06:41.519Z,22.53
2019-02-25T18:09:14.247Z,22.73
2019-02-25T18:11:47.234Z,26.87
2019-02-25T18:14:19.897Z,25.37
2019-02-25T18:16:51.377Z,28.17
2019-02-25T18:19:23.076Z,25.43
2019-02-25T18:22:07.399Z,23.63
2019-02-25T18:24:38.338Z,29.37
2019-02-25T18:27:10.387Z,28.43
2019-02-25T18:29:43.976Z,27.50
2019-02-25T18:32:14.392Z,32.00
2019-02-25T18:34:45.619Z,31.50
2019-02-25T18:37:17.667Z,30.70
2019-02-25T18:39:50.129Z,31.57
2019-02-25T18:42:21.521Z,166.50
2019-02-25T18:44:53.546Z,50.83
2019-02-25T18:47:25.584Z,32.53
2019-02-25T18:49:58.727Z,34.30
2019-02-25T18:52:31.792Z,32.77
2019-02-25T18:55:04.459Z,31.30
2019-02-25T18:57:35.027Z,31.10
2019-02-25T19:00:15.420Z,31.30
2019-02-25T19:02:46.611Z,46.03
2019-02-25T19:05:17.536Z,40.37
2019-02-25T19:07:49.232Z,38.33
2019-02-25T19:10:22.692Z,31.80
2019-02-25T19:12:54.203Z,33.53
2019-02-25T19:15:26.773Z,36.53
2019-02-25T19:17:57.852Z,34.87
2019-02-25T19:20:28.896Z,36.80
2019-02-25T19:23:02.609Z,40.23
2019-02-25T19:25:32.803Z,45.40
2019-02-25T19:28:03.702Z,55.00
2019-02-25T19:30:36.053Z,53.93
2019-02-25T19:33:11.172Z,49.63
2019-02-25T19:35:40.908Z,49.00
2019-02-25T19:38:14.618Z,48.30
2019-02-25T19:40:46.599Z,40.80
2019-02-25T19:43:17.658Z,42.90
2019-02-25T19:45:48.645Z,44.10
2019-02-25T19:48:21.704Z,46.67
2019-02-25T19:50:54.029Z,39.83
2019-02-25T19:53:24.877Z,41.97
2019-02-25T19:55:55.908Z,42.27
2019-02-25T19:58:30.328Z,41.63
2019-02-25T20:01:01.161Z,41.23
2019-02-25T20:03:33.050Z,40.73
2019-02-25T20:06:05.073Z,41.63
2019-02-25T20:08:35.973Z,41.53
2019-02-25T20:11:09.259Z,36.73
2019-02-25T20:13:40.544Z,37.40
2019-02-25T20:16:15.838Z,37.43
2019-02-25T20:18:44.893Z,37.10
2019-02-25T20:21:15.808Z,35.20
2019-02-25T20:23:48.011Z,35.77
2019-02-25T20:26:20.056Z,36.90
2019-02-25T20:28:51.939Z,35.37
2019-02-25T20:31:22.954Z,38.27
2019-02-25T20:33:55.281Z,37.43
2019-02-25T20:36:28.465Z,38.50
2019-02-25T20:38:59.293Z,38.10
2019-02-25T20:41:31.008Z,40.07
2019-02-25T20:44:03.270Z,39.10
2019-02-25T20:46:35.325Z,41.47
2019-02-25T20:49:06.475Z,38.73
2019-02-25T20:51:37.415Z,38.97
2019-02-25T20:54:09.037Z,36.43
2019-02-25T20:56:41.132Z,36.20
2019-02-25T20:59:12.049Z,34.70
2019-02-25T21:01:44.614Z,35.97
2019-02-25T21:04:16.326Z,35.00
2019-02-25T21:06:48.267Z,34.77
2019-02-25T21:09:19.168Z,37.53
2019-02-25T21:11:50.172Z,35.60
2019-02-25T21:14:21.080Z,32.93
2019-02-25T21:16:54.277Z,30.63
2019-02-25T21:19:24.627Z,31.80
2019-02-25T21:21:57.295Z,34.20
2019-02-25T21:24:29.070Z,32.07
2019-02-25T21:27:01.470Z,30.40
2019-02-25T21:29:38.330Z,28.17
2019-02-25T21:32:10.513Z,27.37
2019-02-25T21:34:50.106Z,26.53
2019-02-25T21:37:19.283Z,30.10
2019-02-25T21:39:56.122Z,28.73
2019-02-25T21:42:34.181Z,27.33
2019-02-25T21:45:08.049Z,26.67
2019-02-25T21:47:39.121Z,28.37
2019-02-25T21:50:12.520Z,26.47
2019-02-25T21:52:46.126Z,26.87
2019-02-25T21:55:40.532Z,32.40
2019-02-25T21:58:16.264Z,30.83
2019-02-25T22:00:51.263Z,30.17
2019-02-25T22:03:39.422Z,28.60
2019-02-25T22:06:07.605Z,28.63
2019-02-25T22:08:38.632Z,27.10
2019-02-25T22:11:17.218Z,26.00
2019-02-25T22:13:45.931Z,27.93
2019-02-25T22:16:16.853Z,25.97
2019-02-25T22:18:49.915Z,26.23
2019-02-25T22:21:21.217Z,23.10
2019-02-25T22:23:56.086Z,22.93
2019-02-25T22:26:28.897Z,23.47
2019-02-25T22:28:59.535Z,23.60
2019-02-25T22:31:30.055Z,24.20
2019-02-25T22:34:01.007Z,22.00
2019-02-25T22:36:31.911Z,21.67
2019-02-25T22:39:03.455Z,21.17
2019-02-25T22:41:34.981Z,20.30
2019-02-25T22:44:06.706Z,18.60
2019-02-25T22:46:39.677Z,18.03
2019-02-25T22:49:11.269Z,19.27
2019-02-25T22:51:42.167Z,18.17
2019-02-25T22:54:14.782Z,17.00
2019-02-25T22:56:45.853Z,16.90
2019-02-25T22:59:19.932Z,17.30
2019-02-25T23:01:52.073Z,16.10
2019-02-25T23:04:24.203Z,14.87
2019-02-25T23:06:55.742Z,14.80
2019-02-25T23:09:26.948Z,13.23
2019-02-25T23:11:58.060Z,13.50
2019-02-25T23:14:29.082Z,13.07
2019-02-25T23:17:04.561Z,11.17
2019-02-25T23:19:34.258Z,11.03
2019-02-25T23:22:05.225Z,11.13
2019-02-25T23:24:39.823Z,10.20
2019-02-25T23:27:10.377Z,10.30
2019-02-25T23:29:42.180Z,11.27
2019-02-25T23:32:15.329Z,11.77
2019-02-25T23:34:49.594Z,12.23
2019-02-25T23:37:19.810Z,12.10
2019-02-25T23:39:51.271Z,12.17
2019-02-25T23:42:22.241Z,12.53
2019-02-25T23:44:53.209Z,13.10
2019-02-25T23:47:26.924Z,12.77
2019-02-25T23:49:56.844Z,12.90
2019-02-25T23:52:27.987Z,12.17
2019-02-25T23:55:00.532Z,12.63
2019-02-25T23:57:32.703Z,13.03
